createdAt,value
2023-05-01T00:00:50.012Z,0.42
2023-05-01T00:01:49.996Z,0.38
2023-05-01T00:02:50.096Z,0.39
2023-05-01T00:03:50.130Z,0.41
2023-05-01T00:04:50.024Z,0.44
2023-05-01T00:05:49.981Z,0.48
2023-05-01T00:06:50.031Z,0.50
2023-05-01T00:07:49.991Z,0.50
2023-05-01T00:08:49.995Z,0.50
2023-05-01T00:09:50.006Z,0.50
2023-05-01T00:10:50.038Z,0.50
2023-05-01T00:11:50.016Z,0.50
2023-05-01T00:12:50.036Z,0.50
2023-05-01T00:13:50.061Z,0.50
2023-05-01T00:14:50.058Z,0.52
2023-05-01T00:15:50.084Z,0.50
2023-05-01T00:16:50.301Z,0.50
2023-05-01T00:17:50.224Z,0.51
2023-05-01T00:18:50.129Z,0.51
2023-05-01T00:19:50.157Z,0.50
2023-05-01T00:20:50.175Z,0.50
2023-05-01T00:21:50.196Z,0.51
2023-05-01T00:22:50.240Z,0.50
2023-05-01T00:23:50.243Z,0.51
2023-05-01T00:24:50.264Z,0.50
2023-05-01T00:25:50.286Z,0.51
2023-05-01T00:26:50.337Z,0.51
2023-05-01T00:27:50.333Z,0.51
2023-05-01T00:28:50.362Z,0.51
2023-05-01T00:29:50.397Z,0.51
2023-05-01T00:30:50.971Z,0.51
2023-05-01T00:31:50.462Z,0.51
2023-05-01T00:32:50.508Z,0.50
2023-05-01T00:33:50.470Z,0.51
2023-05-01T00:34:50.500Z,0.52
2023-05-01T00:35:50.537Z,0.50
2023-05-01T00:36:50.557Z,0.51
2023-05-01T00:37:50.583Z,0.50
2023-05-01T00:38:50.610Z,0.51
2023-05-01T00:39:50.641Z,0.50
2023-05-01T00:40:50.668Z,0.51
2023-05-01T00:41:50.714Z,0.51
2023-05-01T00:42:50.757Z,0.51
2023-05-01T00:43:50.763Z,0.51
2023-05-01T00:44:50.789Z,0.51
2023-05-01T00:45:50.965Z,0.51
2023-05-01T00:46:50.850Z,0.51
2023-05-01T00:47:50.901Z,0.50
2023-05-01T00:48:50.916Z,0.50
2023-05-01T00:49:50.958Z,0.50
2023-05-01T00:50:50.969Z,0.51
2023-05-01T00:51:51.005Z,0.51
2023-05-01T00:52:51.029Z,0.52
2023-05-01T00:53:51.059Z,0.51
2023-05-01T00:54:51.105Z,0.51
2023-05-01T00:55:51.130Z,0.50
2023-05-01T00:56:51.159Z,0.51
2023-05-01T00:57:51.191Z,0.51
2023-05-01T00:58:51.363Z,0.52
2023-05-01T00:59:51.253Z,0.51
2023-05-01T01:00:51.320Z,0.51
2023-05-01T01:01:51.316Z,0.50
2023-05-01T01:02:51.386Z,0.51
2023-05-01T01:03:51.381Z,0.51
2023-05-01T01:04:51.516Z,0.52
2023-05-01T01:05:51.471Z,0.51
2023-05-01T01:06:51.528Z,0.51
2023-05-01T01:07:51.532Z,0.52
2023-05-01T01:08:51.562Z,0.51
2023-05-01T01:09:51.589Z,0.50
2023-05-01T01:10:51.636Z,0.51
2023-05-01T01:11:51.668Z,0.51
2023-05-01T01:12:51.698Z,0.53
2023-05-01T01:13:51.741Z,0.52
2023-05-01T01:14:51.798Z,0.52
2023-05-01T01:15:51.797Z,0.52
2023-05-01T01:16:51.898Z,0.51
2023-05-01T01:17:51.915Z,0.51
2023-05-01T01:18:51.900Z,0.50
2023-05-01T01:19:51.946Z,0.51
2023-05-01T01:20:51.973Z,0.51
2023-05-01T01:21:52.004Z,0.51
2023-05-01T01:22:52.058Z,0.52
2023-05-01T01:23:52.073Z,0.51
2023-05-01T01:24:52.110Z,0.51
2023-05-01T01:25:52.148Z,0.53
2023-05-01T01:26:52.194Z,0.51
2023-05-01T01:27:52.230Z,0.51
2023-05-01T01:28:52.264Z,0.52
2023-05-01T01:29:52.297Z,0.52
2023-05-01T01:30:52.366Z,0.52
2023-05-01T01:31:52.370Z,0.53
2023-05-01T01:32:52.440Z,0.52
2023-05-01T01:33:52.439Z,0.51
2023-05-01T01:34:52.495Z,0.53
2023-05-01T01:35:52.515Z,0.53
2023-05-01T01:36:52.552Z,0.52
2023-05-01T01:37:52.587Z,0.53
2023-05-01T01:38:52.626Z,0.52
2023-05-01T01:39:52.699Z,0.52
2023-05-01T01:40:52.693Z,0.52
2023-05-01T01:41:52.724Z,0.52
2023-05-01T01:42:52.774Z,0.51
2023-05-01T01:43:52.813Z,0.52
2023-05-01T01:44:52.869Z,0.53
2023-05-01T01:45:52.922Z,0.52
2023-05-01T01:46:52.976Z,0.53
2023-05-01T01:47:53.026Z,0.52
2023-05-01T01:48:52.995Z,0.52
2023-05-01T01:49:53.207Z,0.52
2023-05-01T01:50:53.088Z,0.53
2023-05-01T01:51:53.144Z,0.52
2023-05-01T01:52:53.157Z,0.52
2023-05-01T01:53:53.199Z,0.53
2023-05-01T01:54:53.262Z,0.52
2023-05-01T01:55:53.285Z,0.52
2023-05-01T01:56:53.323Z,0.53
2023-05-01T01:57:53.368Z,0.53
2023-05-01T01:58:53.395Z,0.53
2023-05-01T01:59:53.624Z,0.52
2023-05-01T02:00:53.455Z,0.52
2023-05-01T02:01:53.632Z,0.52
2023-05-01T02:02:53.824Z,0.52
2023-05-01T02:03:53.701Z,0.53
2023-05-01T02:04:53.599Z,0.53
2023-05-01T02:05:53.616Z,0.53
2023-05-01T02:06:53.645Z,0.52
2023-05-01T02:07:53.684Z,0.52
2023-05-01T02:08:53.740Z,0.52
2023-05-01T02:09:53.809Z,0.53
2023-05-01T02:10:53.781Z,0.53
2023-05-01T02:11:53.815Z,0.52
2023-05-01T02:12:53.850Z,0.53
2023-05-01T02:13:53.886Z,0.52
2023-05-01T02:14:53.931Z,0.53
2023-05-01T02:15:53.963Z,0.52
2023-05-01T02:16:53.996Z,0.53
2023-05-01T02:17:54.043Z,0.54
2023-05-01T02:18:54.150Z,0.53
2023-05-01T02:19:54.200Z,0.53
2023-05-01T02:20:54.134Z,0.52
2023-05-01T02:21:54.175Z,0.54
2023-05-01T02:22:54.213Z,0.54
2023-05-01T02:23:54.251Z,0.52
2023-05-01T02:24:54.279Z,0.53
2023-05-01T02:25:54.317Z,0.53
2023-05-01T02:26:54.352Z,0.53
2023-05-01T02:27:54.386Z,0.52
2023-05-01T02:28:54.427Z,0.52
2023-05-01T02:29:54.805Z,0.52
2023-05-01T02:30:54.500Z,0.53
2023-05-01T02:31:54.603Z,0.53
2023-05-01T02:32:54.598Z,0.54
2023-05-01T02:33:54.616Z,0.52
2023-05-01T02:34:54.678Z,0.53
2023-05-01T02:35:54.694Z,0.53
2023-05-01T02:36:54.721Z,0.52
2023-05-01T02:37:54.750Z,0.53
2023-05-01T02:38:54.798Z,0.53
2023-05-01T02:39:55.149Z,0.52
2023-05-01T02:40:54.855Z,0.53
2023-05-01T02:41:54.888Z,0.53
2023-05-01T02:42:54.932Z,0.53
2023-05-01T02:43:54.963Z,0.51
2023-05-01T02:44:54.999Z,0.52
2023-05-01T02:45:55.188Z,0.52
2023-05-01T02:46:55.144Z,0.52
2023-05-01T02:47:55.116Z,0.52
2023-05-01T02:48:55.152Z,0.52
2023-05-01T02:49:55.443Z,0.53
2023-05-01T02:50:55.247Z,0.52
2023-05-01T02:51:55.265Z,0.53
2023-05-01T02:52:55.293Z,0.52
2023-05-01T02:53:55.327Z,0.53
2023-05-01T02:54:55.368Z,0.52
2023-05-01T02:55:55.410Z,0.52
2023-05-01T02:56:55.455Z,0.53
2023-05-01T02:57:55.492Z,0.53
2023-05-01T02:58:55.540Z,0.53
2023-05-01T02:59:55.749Z,0.53
2023-05-01T03:00:55.681Z,0.53
2023-05-01T03:01:55.675Z,0.53
2023-05-01T03:02:55.723Z,0.53
2023-05-01T03:03:55.807Z,0.52
2023-05-01T03:04:55.781Z,0.54
2023-05-01T03:05:55.867Z,0.53
2023-05-01T03:06:55.895Z,0.53
2023-05-01T03:07:55.913Z,0.53
2023-05-01T03:08:55.952Z,0.53
2023-05-01T03:09:56.235Z,0.53
2023-05-01T03:10:56.019Z,0.53
2023-05-01T03:11:56.064Z,0.52
2023-05-01T03:12:56.083Z,0.52
2023-05-01T03:13:56.130Z,0.52
2023-05-01T03:14:56.165Z,0.53
2023-05-01T03:15:56.266Z,0.53
2023-05-01T03:16:56.328Z,0.54
2023-05-01T03:17:56.366Z,0.52
2023-05-01T03:18:56.340Z,0.53
2023-05-01T03:19:56.623Z,0.52
2023-05-01T03:20:56.411Z,0.52
2023-05-01T03:21:56.450Z,0.52
2023-05-01T03:22:56.518Z,0.51
2023-05-01T03:23:56.536Z,0.54
2023-05-01T03:24:56.580Z,0.53
2023-05-01T03:25:56.627Z,0.53
2023-05-01T03:26:56.677Z,0.52
2023-05-01T03:27:56.702Z,0.51
2023-05-01T03:28:56.742Z,0.53
2023-05-01T03:29:56.978Z,0.53
2023-05-01T03:30:56.824Z,0.52
2023-05-01T03:31:56.916Z,0.53
2023-05-01T03:32:56.953Z,0.53
2023-05-01T03:33:56.958Z,0.52
2023-05-01T03:34:57.035Z,0.53
2023-05-01T03:35:57.039Z,0.53
2023-05-01T03:36:57.088Z,0.52
2023-05-01T03:37:57.123Z,0.54
2023-05-01T03:38:57.197Z,0.54
2023-05-01T03:39:57.450Z,0.52
2023-05-01T03:40:57.250Z,0.53
2023-05-01T03:41:57.303Z,0.54
2023-05-01T03:42:57.321Z,0.53
2023-05-01T03:43:57.367Z,0.53
2023-05-01T03:44:57.406Z,0.54
2023-05-01T03:45:57.480Z,0.53
2023-05-01T03:46:57.533Z,0.53
2023-05-01T03:47:57.594Z,0.54
2023-05-01T03:48:57.575Z,0.54
2023-05-01T03:49:57.905Z,0.54
2023-05-01T03:50:57.671Z,0.54
2023-05-01T03:51:57.728Z,0.54
2023-05-01T03:52:57.782Z,0.54
2023-05-01T03:53:57.918Z,0.54
2023-05-01T03:54:57.967Z,0.53
2023-05-01T03:55:57.921Z,0.53
2023-05-01T03:56:57.932Z,0.55
2023-05-01T03:57:57.974Z,0.53
2023-05-01T03:58:58.040Z,0.54
2023-05-01T03:59:58.274Z,0.53
2023-05-01T04:00:58.094Z,0.53
2023-05-01T04:01:58.203Z,0.53
2023-05-01T04:02:58.437Z,0.53
2023-05-01T04:03:58.326Z,0.53
2023-05-01T04:04:58.269Z,0.53
2023-05-01T04:05:58.369Z,0.53
2023-05-01T04:06:58.359Z,0.54
2023-05-01T04:07:58.396Z,0.54
2023-05-01T04:08:58.460Z,0.54
2023-05-01T04:09:58.491Z,0.54
2023-05-01T04:10:58.560Z,0.54
2023-05-01T04:11:58.585Z,0.53
2023-05-01T04:12:58.625Z,0.54
2023-05-01T04:13:58.682Z,0.53
2023-05-01T04:14:58.719Z,0.54
2023-05-01T04:15:58.782Z,0.53
2023-05-01T04:16:58.833Z,0.54
2023-05-01T04:17:58.905Z,0.54
2023-05-01T04:18:58.910Z,0.53
2023-05-01T04:19:59.216Z,0.54
2023-05-01T04:20:59.003Z,0.55
2023-05-01T04:21:59.056Z,0.53
2023-05-01T04:22:59.094Z,0.54
2023-05-01T04:23:59.151Z,0.55
2023-05-01T04:24:59.197Z,0.55
2023-05-01T04:25:59.271Z,0.54
2023-05-01T04:26:59.321Z,0.54
2023-05-01T04:27:59.356Z,0.54
2023-05-01T04:28:59.386Z,0.55
2023-05-01T04:29:59.698Z,0.53
2023-05-01T04:30:59.485Z,0.54
2023-05-01T04:31:59.596Z,0.53
2023-05-01T04:32:59.575Z,0.54
2023-05-01T04:33:59.613Z,0.53
2023-05-01T04:34:59.906Z,0.54
2023-05-01T04:35:59.704Z,0.55
2023-05-01T04:36:59.753Z,0.54
2023-05-01T04:37:59.804Z,0.54
2023-05-01T04:38:59.835Z,0.54
2023-05-01T04:39:59.919Z,0.55
2023-05-01T04:40:59.929Z,0.54
2023-05-01T04:41:59.972Z,0.54
2023-05-01T04:43:00.046Z,0.54
2023-05-01T04:44:00.062Z,0.55
2023-05-01T04:45:00.114Z,0.54
2023-05-01T04:46:00.185Z,0.54
2023-05-01T04:47:00.237Z,0.53
2023-05-01T04:48:00.284Z,0.54
2023-05-01T04:49:00.318Z,0.53
2023-05-01T04:50:00.352Z,0.53
2023-05-01T04:51:00.394Z,0.54
2023-05-01T04:52:00.432Z,0.53
2023-05-01T04:53:00.483Z,0.54
2023-05-01T04:54:00.532Z,0.54
2023-05-01T04:55:00.582Z,0.53
2023-05-01T04:56:00.637Z,0.54
2023-05-01T04:57:00.684Z,0.54
2023-05-01T04:58:00.732Z,0.53
2023-05-01T04:59:00.798Z,0.54
2023-05-01T05:00:00.851Z,0.54
2023-05-01T05:01:01.002Z,0.54
2023-05-01T05:02:01.054Z,0.56
2023-05-01T05:03:01.192Z,0.55
2023-05-01T05:04:01.197Z,0.55
2023-05-01T05:05:01.111Z,0.54
2023-05-01T05:06:01.179Z,0.55
2023-05-01T05:07:01.184Z,0.55
2023-05-01T05:08:01.224Z,0.54
2023-05-01T05:09:01.259Z,0.54
2023-05-01T05:10:01.328Z,0.50
2023-05-01T05:11:01.357Z,0.51
2023-05-01T05:12:01.407Z,0.50
2023-05-01T05:13:01.453Z,0.51
2023-05-01T05:14:01.524Z,0.51
2023-05-01T05:15:01.580Z,0.51
2023-05-01T05:16:01.661Z,0.51
2023-05-01T05:17:01.658Z,0.50
2023-05-01T05:18:01.747Z,0.50
2023-05-01T05:19:01.762Z,0.50
2023-05-01T05:20:01.794Z,0.50
2023-05-01T05:21:01.845Z,0.51
2023-05-01T05:22:01.896Z,0.50
2023-05-01T05:23:01.950Z,0.51
2023-05-01T05:24:01.979Z,0.51
2023-05-01T05:25:02.028Z,0.51
2023-05-01T05:26:02.079Z,0.50
2023-05-01T05:27:02.120Z,0.51
2023-05-01T05:28:02.187Z,0.51
2023-05-01T05:29:02.207Z,0.50
2023-05-01T05:30:02.257Z,0.51
2023-05-01T05:31:02.336Z,0.50
2023-05-01T05:32:02.382Z,0.51
2023-05-01T05:33:02.617Z,0.50
2023-05-01T05:34:02.422Z,0.50
2023-05-01T05:35:02.467Z,0.51
2023-05-01T05:36:02.515Z,0.51
2023-05-01T05:37:02.569Z,0.51
2023-05-01T05:38:02.603Z,0.50
2023-05-01T05:39:02.658Z,0.50
2023-05-01T05:40:02.695Z,0.50
2023-05-01T05:41:02.739Z,0.50
2023-05-01T05:42:02.780Z,0.51
2023-05-01T05:43:02.834Z,0.51
2023-05-01T05:44:02.875Z,0.51
2023-05-01T05:45:02.920Z,0.50
2023-05-01T05:46:02.979Z,0.51
2023-05-01T05:47:03.050Z,0.51
2023-05-01T05:48:03.210Z,0.51
2023-05-01T05:49:03.123Z,0.51
2023-05-01T05:50:03.173Z,0.50
2023-05-01T05:51:03.225Z,0.50
2023-05-01T05:52:03.287Z,0.51
2023-05-01T05:53:03.329Z,0.51
2023-05-01T05:54:03.396Z,0.52
2023-05-01T05:55:03.490Z,0.51
2023-05-01T05:56:03.507Z,0.51
2023-05-01T05:57:03.562Z,0.51
2023-05-01T05:58:03.618Z,0.51
2023-05-01T05:59:03.685Z,0.50
2023-05-01T06:00:03.716Z,0.51
2023-05-01T06:01:03.806Z,0.50
2023-05-01T06:02:03.864Z,0.52
2023-05-01T06:03:03.972Z,0.51
2023-05-01T06:04:03.915Z,0.50
2023-05-01T06:05:04.045Z,0.51
2023-05-01T06:06:04.245Z,0.51
2023-05-01T06:07:04.110Z,0.51
2023-05-01T06:08:04.118Z,0.52
2023-05-01T06:09:04.174Z,0.50
2023-05-01T06:10:04.245Z,0.51
2023-05-01T06:11:04.277Z,0.51
2023-05-01T06:12:04.326Z,0.52
2023-05-01T06:13:13.219Z,0.51
2023-05-01T06:14:04.366Z,0.51
2023-05-01T06:15:04.348Z,0.51
2023-05-01T06:16:04.382Z,0.51
2023-05-01T06:17:04.354Z,0.50
2023-05-01T06:18:04.363Z,0.51
2023-05-01T06:19:04.355Z,0.51
2023-05-01T06:20:04.330Z,0.51
2023-05-01T06:21:04.314Z,0.51
2023-05-01T06:22:04.306Z,0.51
2023-05-01T06:23:04.295Z,0.51
2023-05-01T06:24:04.311Z,0.51
2023-05-01T06:25:04.292Z,0.52
2023-05-01T06:26:04.270Z,0.51
2023-05-01T06:27:04.262Z,0.51
2023-05-01T06:28:04.252Z,0.50
2023-05-01T06:29:04.259Z,0.51
2023-05-01T06:30:04.257Z,0.51
2023-05-01T06:31:04.277Z,0.51
2023-05-01T06:32:04.255Z,0.50
2023-05-01T06:33:04.351Z,0.51
2023-05-01T06:34:04.229Z,0.52
2023-05-01T06:35:04.276Z,0.51
2023-05-01T06:36:04.230Z,0.50
2023-05-01T06:37:04.223Z,0.50
2023-05-01T06:38:04.249Z,0.51
2023-05-01T06:39:04.207Z,0.51
2023-05-01T06:40:04.192Z,0.50
2023-05-01T06:41:04.176Z,0.52
2023-05-01T06:42:04.200Z,0.50
2023-05-01T06:43:04.254Z,0.51
2023-05-01T06:44:04.308Z,0.51
2023-05-01T06:45:04.348Z,0.51
2023-05-01T06:46:04.395Z,0.50
2023-05-01T06:47:04.569Z,0.50
2023-05-01T06:48:04.571Z,0.51
2023-05-01T06:49:04.535Z,0.50
2023-05-01T06:50:05.690Z,0.52
2023-05-01T06:51:04.652Z,0.51
2023-05-01T06:52:04.675Z,0.51
2023-05-01T06:53:04.725Z,0.51
2023-05-01T06:54:04.768Z,0.52
2023-05-01T06:55:04.820Z,0.52
2023-05-01T06:56:04.857Z,0.52
2023-05-01T06:57:04.903Z,0.51
2023-05-01T06:58:12.544Z,0.51
2023-05-01T06:59:04.940Z,0.51
2023-05-01T07:00:04.925Z,0.52
2023-05-01T07:01:04.938Z,0.52
2023-05-01T07:02:04.951Z,0.51
2023-05-01T07:03:04.945Z,0.50
2023-05-01T07:04:04.885Z,0.50
2023-05-01T07:05:04.874Z,0.51
2023-05-01T07:06:04.900Z,0.51
2023-05-01T07:07:04.874Z,0.50
2023-05-01T07:08:04.845Z,0.50
2023-05-01T07:09:04.832Z,0.51
2023-05-01T07:10:04.806Z,0.50
2023-05-01T07:11:04.807Z,0.51
2023-05-01T07:12:04.789Z,0.50
2023-05-01T07:13:04.777Z,0.51
2023-05-01T07:14:04.763Z,0.51
2023-05-01T07:15:04.756Z,0.51
2023-05-01T07:16:04.773Z,0.51
2023-05-01T07:17:04.716Z,0.50
2023-05-01T07:18:04.721Z,0.52
2023-05-01T07:19:04.705Z,0.51
2023-05-01T07:20:04.672Z,0.50
2023-05-01T07:21:04.660Z,0.51
2023-05-01T07:22:04.645Z,0.51
2023-05-01T07:23:07.144Z,0.51
2023-05-01T07:24:04.614Z,0.51
2023-05-01T07:25:04.595Z,0.51
2023-05-01T07:26:04.581Z,0.51
2023-05-01T07:27:04.570Z,0.49
2023-05-01T07:28:04.632Z,0.50
2023-05-01T07:29:04.544Z,0.50
2023-05-01T07:30:04.540Z,0.51
2023-05-01T07:31:04.533Z,0.52
2023-05-01T07:32:04.570Z,0.53
2023-05-01T07:33:04.594Z,0.50
2023-05-01T07:34:04.496Z,0.51
2023-05-01T07:35:04.475Z,0.51
2023-05-01T07:36:04.480Z,0.51
2023-05-01T07:37:04.458Z,0.50
2023-05-01T07:38:04.451Z,0.52
2023-05-01T07:39:04.462Z,0.51
2023-05-01T07:40:04.430Z,0.51
2023-05-01T07:41:04.396Z,0.51
2023-05-01T07:42:04.379Z,0.51
2023-05-01T07:43:04.381Z,0.51
2023-05-01T07:44:04.356Z,0.51
2023-05-01T07:45:04.344Z,0.51
2023-05-01T07:46:04.369Z,0.50
2023-05-01T07:47:04.301Z,0.52
2023-05-01T07:48:04.307Z,0.50
2023-05-01T07:49:04.331Z,0.51
2023-05-01T07:50:04.311Z,0.51
2023-05-01T07:51:04.361Z,0.50
2023-05-01T07:52:04.397Z,0.50
2023-05-01T07:53:04.442Z,0.51
2023-05-01T07:54:04.877Z,0.51
2023-05-01T07:55:04.525Z,0.50
2023-05-01T07:56:04.534Z,0.50
2023-05-01T07:57:04.576Z,0.50
2023-05-01T07:58:04.620Z,0.50
2023-05-01T07:59:04.665Z,0.50
2023-05-01T08:00:04.700Z,0.50
2023-05-01T08:01:04.746Z,0.51
2023-05-01T08:02:04.810Z,0.50
2023-05-01T08:03:04.905Z,0.52
2023-05-01T08:04:05.016Z,0.50
2023-05-01T08:05:04.916Z,0.50
2023-05-01T08:06:05.027Z,0.52
2023-05-01T08:07:04.997Z,0.51
2023-05-01T08:08:05.035Z,0.50
2023-05-01T08:09:05.067Z,0.50
2023-05-01T08:10:05.515Z,0.50
2023-05-01T08:11:05.174Z,0.50
2023-05-01T08:12:05.192Z,0.52
2023-05-01T08:13:05.229Z,0.50
2023-05-01T08:14:05.265Z,0.50
2023-05-01T08:15:05.304Z,0.50
2023-05-01T08:16:05.350Z,0.50
2023-05-01T08:17:05.360Z,0.50
2023-05-01T08:18:05.485Z,0.52
2023-05-01T08:19:05.420Z,0.51
2023-05-01T08:20:05.468Z,0.50
2023-05-01T08:21:05.484Z,0.51
2023-05-01T08:22:05.551Z,0.53
2023-05-01T08:23:05.558Z,0.54
2023-05-01T08:24:05.595Z,0.53
2023-05-01T08:25:05.644Z,0.52
2023-05-01T08:26:05.654Z,0.53
2023-05-01T08:27:05.721Z,0.55
2023-05-01T08:28:05.727Z,0.54
2023-05-01T08:29:05.760Z,0.53
2023-05-01T08:30:05.819Z,0.53
2023-05-01T08:31:05.879Z,0.52
2023-05-01T08:32:05.872Z,0.55
2023-05-01T08:33:05.965Z,0.55
2023-05-01T08:34:05.945Z,0.54
2023-05-01T08:35:05.997Z,0.53
2023-05-01T08:36:06.023Z,0.53
2023-05-01T08:37:06.079Z,0.52
2023-05-01T08:38:06.082Z,0.50
2023-05-01T08:39:06.128Z,0.51
2023-05-01T08:40:06.153Z,0.50
2023-05-01T08:41:06.185Z,0.50
2023-05-01T08:42:06.206Z,0.52
2023-05-01T08:43:06.279Z,0.50
2023-05-01T08:44:06.285Z,0.50
2023-05-01T08:45:06.320Z,0.50
2023-05-01T08:46:06.403Z,0.50
2023-05-01T08:47:06.480Z,0.50
2023-05-01T08:48:06.458Z,0.51
2023-05-01T08:49:06.465Z,0.51
2023-05-01T08:50:06.466Z,0.51
2023-05-01T08:51:06.495Z,0.50
2023-05-01T08:52:06.521Z,0.50
2023-05-01T08:53:06.536Z,0.51
2023-05-01T08:54:06.591Z,0.50
2023-05-01T08:55:06.599Z,0.51
2023-05-01T08:56:06.625Z,0.53
2023-05-01T08:57:07.771Z,0.51
2023-05-01T08:58:06.625Z,0.51
2023-05-01T08:59:06.624Z,0.51
2023-05-01T09:00:06.590Z,0.51
2023-05-01T09:01:06.678Z,0.51
2023-05-01T09:02:06.756Z,0.51
2023-05-01T09:03:06.641Z,0.51
2023-05-01T09:04:06.578Z,0.51
2023-05-01T09:05:06.487Z,0.52
2023-05-01T09:06:06.500Z,0.52
2023-05-01T09:07:06.451Z,0.50
2023-05-01T09:08:06.431Z,0.51
2023-05-01T09:09:06.402Z,0.53
2023-05-01T09:10:06.380Z,0.50
2023-05-01T09:11:06.356Z,0.51
2023-05-01T09:12:06.327Z,0.52
2023-05-01T09:13:06.314Z,0.53
2023-05-01T09:14:06.292Z,0.53
2023-05-01T09:15:06.280Z,0.54
2023-05-01T09:16:06.268Z,0.51
2023-05-01T09:17:06.208Z,0.51
2023-05-01T09:18:06.234Z,0.50
2023-05-01T09:19:06.177Z,0.51
2023-05-01T09:20:06.181Z,0.52
2023-05-01T09:21:06.126Z,0.51
2023-05-01T09:22:06.098Z,0.50
2023-05-01T09:23:06.069Z,0.50
2023-05-01T09:24:06.058Z,0.51
2023-05-01T09:25:06.024Z,0.51
2023-05-01T09:26:06.010Z,0.52
2023-05-01T09:27:05.999Z,0.50
2023-05-01T09:28:05.953Z,0.52
2023-05-01T09:29:05.934Z,0.52
2023-05-01T09:30:05.895Z,0.53
2023-05-01T09:31:05.904Z,0.50
2023-05-01T09:32:05.930Z,0.52
2023-05-01T09:33:05.877Z,0.51
2023-05-01T09:34:05.825Z,0.51
2023-05-01T09:35:05.772Z,0.51
2023-05-01T09:36:05.752Z,0.51
2023-05-01T09:37:05.731Z,0.52
2023-05-01T09:38:05.703Z,0.50
2023-05-01T09:39:05.688Z,0.51
2023-05-01T09:40:05.672Z,0.51
2023-05-01T09:41:05.675Z,0.52
2023-05-01T09:42:05.648Z,0.50
2023-05-01T09:43:05.605Z,0.50
2023-05-01T09:44:05.599Z,0.50
2023-05-01T09:45:05.584Z,0.51
2023-05-01T09:46:05.662Z,0.51
2023-05-01T09:47:05.652Z,0.50
2023-05-01T09:48:05.719Z,0.51
2023-05-01T09:49:05.722Z,0.51
2023-05-01T09:50:05.724Z,0.52
2023-05-01T09:51:05.771Z,0.51
2023-05-01T09:52:05.801Z,0.50
2023-05-01T09:53:05.845Z,0.50
2023-05-01T09:54:05.893Z,0.52
2023-05-01T09:55:05.934Z,0.52
2023-05-01T09:56:05.988Z,0.51
2023-05-01T09:57:06.030Z,0.52
2023-05-01T09:58:06.065Z,0.53
2023-05-01T09:59:06.125Z,0.53
2023-05-01T10:00:06.202Z,0.52
2023-05-01T10:01:06.230Z,0.53
2023-05-01T10:02:06.296Z,0.52
2023-05-01T10:03:06.632Z,0.50
2023-05-01T10:04:06.310Z,0.51
2023-05-01T10:05:06.224Z,0.52
2023-05-01T10:06:06.338Z,0.53
2023-05-01T10:07:06.204Z,0.54
2023-05-01T10:08:06.199Z,0.52
2023-05-01T10:09:06.139Z,0.52
2023-05-01T10:10:06.123Z,0.53
2023-05-01T10:11:06.060Z,0.51
2023-05-01T10:12:06.041Z,0.50
2023-05-01T10:13:05.994Z,0.51
2023-05-01T10:14:05.969Z,0.53
2023-05-01T10:15:17.345Z,0.51
2023-05-01T10:16:05.902Z,0.51
2023-05-01T10:17:05.883Z,0.51
2023-05-01T10:18:05.861Z,0.51
2023-05-01T10:19:05.839Z,0.52
2023-05-01T10:20:05.774Z,0.53
2023-05-01T10:21:05.740Z,0.51
2023-05-01T10:22:05.706Z,0.51
2023-05-01T10:23:05.690Z,0.50
2023-05-01T10:24:05.656Z,0.51
2023-05-01T10:25:05.622Z,0.52
2023-05-01T10:27:04.566Z,0.53
2023-05-01T10:28:05.560Z,0.52
2023-05-01T10:29:05.523Z,0.51
2023-05-01T10:30:05.495Z,0.52
2023-05-01T10:31:05.518Z,0.54
2023-05-01T10:32:05.431Z,0.53
2023-05-01T10:33:05.480Z,0.55
2023-05-01T10:34:05.374Z,0.57
2023-05-01T10:35:05.360Z,0.59
2023-05-01T10:36:05.320Z,0.61
2023-05-01T10:37:05.291Z,0.63
2023-05-01T10:38:05.276Z,0.64
2023-05-01T10:39:05.223Z,0.67
2023-05-01T10:40:05.217Z,0.69
2023-05-01T10:41:05.240Z,0.70
2023-05-01T10:42:05.295Z,0.72
2023-05-01T10:43:05.313Z,0.73
2023-05-01T10:44:05.330Z,0.75
2023-05-01T10:45:05.367Z,0.75
2023-05-01T10:46:05.450Z,0.78
2023-05-01T10:47:05.431Z,0.80
2023-05-01T10:48:05.495Z,0.82
2023-05-01T10:49:05.486Z,0.82
2023-05-01T10:50:05.516Z,0.85
2023-05-01T10:51:05.555Z,0.88
2023-05-01T10:52:05.551Z,0.88
2023-05-01T10:53:05.587Z,0.89
2023-05-01T10:54:05.611Z,0.91
2023-05-01T10:55:05.643Z,0.94
2023-05-01T10:56:05.663Z,0.96
2023-05-01T10:57:05.686Z,0.97
2023-05-01T10:58:05.714Z,0.98
2023-05-01T10:59:05.737Z,0.98
2023-05-01T11:00:05.778Z,1.00
2023-05-01T11:01:05.791Z,1.00
2023-05-01T11:02:05.869Z,1.01
2023-05-01T11:03:05.901Z,1.02
2023-05-01T11:04:05.885Z,1.05
2023-05-01T11:05:05.966Z,1.06
2023-05-01T11:06:06.190Z,1.05
2023-05-01T11:07:06.149Z,1.08
2023-05-01T11:08:06.044Z,1.05
2023-05-01T11:09:06.039Z,1.07
2023-05-01T11:10:06.067Z,1.10
2023-05-01T11:11:06.081Z,1.07
2023-05-01T11:12:06.117Z,1.08
2023-05-01T11:13:06.150Z,1.06
2023-05-01T11:14:06.192Z,1.09
2023-05-01T11:15:06.200Z,1.09
2023-05-01T11:16:06.275Z,1.10
2023-05-01T11:17:06.257Z,1.10
2023-05-01T11:18:06.462Z,1.11
2023-05-01T11:19:06.318Z,1.12
2023-05-01T11:20:06.345Z,1.11
2023-05-01T11:21:06.358Z,1.12
2023-05-01T11:22:06.385Z,1.13
2023-05-01T11:23:06.536Z,1.15
2023-05-01T11:24:06.454Z,1.15
2023-05-01T11:25:06.464Z,1.13
2023-05-01T11:26:06.505Z,1.15
2023-05-01T11:27:06.524Z,1.16
2023-05-01T11:28:06.558Z,1.15
2023-05-01T11:29:06.583Z,1.14
2023-05-01T11:30:06.612Z,1.13
2023-05-01T11:31:06.633Z,1.14
2023-05-01T11:32:06.729Z,1.14
2023-05-01T11:33:09.137Z,1.16
2023-05-01T11:34:06.641Z,1.16
2023-05-01T11:35:06.608Z,1.15
2023-05-01T11:36:06.575Z,1.15
2023-05-01T11:37:06.536Z,1.14
2023-05-01T11:38:06.491Z,1.16
2023-05-01T11:39:06.563Z,1.14
2023-05-01T11:40:06.433Z,1.15
2023-05-01T11:41:06.413Z,1.13
2023-05-01T11:42:06.417Z,1.10
2023-05-01T11:43:06.348Z,1.12
2023-05-01T11:44:06.312Z,1.12
2023-05-01T11:45:06.283Z,1.10
2023-05-01T11:46:06.271Z,1.08
2023-05-01T11:47:06.211Z,1.06
2023-05-01T11:48:06.332Z,1.07
2023-05-01T11:49:06.182Z,1.06
2023-05-01T11:50:06.203Z,1.05
2023-05-01T11:51:06.210Z,1.05
2023-05-01T11:52:06.243Z,1.06
2023-05-01T11:53:06.281Z,1.06
2023-05-01T11:54:06.304Z,1.01
2023-05-01T11:55:06.330Z,1.02
2023-05-01T11:56:13.267Z,1.01
2023-05-01T11:57:06.286Z,1.01
2023-05-01T11:58:06.261Z,1.02
2023-05-01T11:59:06.207Z,1.03
2023-05-01T12:00:06.183Z,1.03
2023-05-01T12:01:06.136Z,1.01
2023-05-01T12:02:06.146Z,1.00
2023-05-01T12:03:06.443Z,0.99
2023-05-01T12:04:06.117Z,0.98
2023-05-01T12:05:06.189Z,0.94
2023-05-01T12:06:05.997Z,0.96
2023-05-01T12:07:05.940Z,0.95
2023-05-01T12:08:05.904Z,0.95
2023-05-01T12:09:05.869Z,0.95
2023-05-01T12:10:05.845Z,0.93
2023-05-01T12:11:05.841Z,0.97
2023-05-01T12:12:05.781Z,0.98
2023-05-01T12:13:05.747Z,0.95
2023-05-01T12:14:05.716Z,0.93
2023-05-01T12:15:05.679Z,0.93
2023-05-01T12:16:05.643Z,0.94
2023-05-01T12:17:05.731Z,0.93
2023-05-01T12:18:05.752Z,0.93
2023-05-01T12:19:05.599Z,0.93
2023-05-01T12:20:05.643Z,0.95
2023-05-01T12:21:05.661Z,0.95
2023-05-01T12:22:05.706Z,0.95
2023-05-01T12:23:05.757Z,1.00
2023-05-01T12:24:05.766Z,1.06
2023-05-01T12:25:05.801Z,1.13
2023-05-01T12:26:05.831Z,1.20
2023-05-01T12:27:05.899Z,1.24
2023-05-01T12:28:05.905Z,1.28
2023-05-01T12:29:05.933Z,1.29
2023-05-01T12:30:05.971Z,1.30
2023-05-01T12:31:06.055Z,1.31
2023-05-01T12:32:06.043Z,1.37
2023-05-01T12:33:06.111Z,1.40
2023-05-01T12:34:06.089Z,1.44
2023-05-01T12:35:06.111Z,1.48
2023-05-01T12:36:06.134Z,1.55
2023-05-01T12:37:06.162Z,1.61
2023-05-01T12:38:06.191Z,1.65
2023-05-01T12:39:06.247Z,1.73
2023-05-01T12:40:06.249Z,1.78
2023-05-01T12:41:06.273Z,1.83
2023-05-01T12:42:06.310Z,1.85
2023-05-01T12:43:06.355Z,1.92
2023-05-01T12:44:06.365Z,2.00
2023-05-01T12:45:06.404Z,2.06
2023-05-01T12:46:06.429Z,2.05
2023-05-01T12:47:06.458Z,2.04
2023-05-01T12:48:06.545Z,2.05
2023-05-01T12:49:06.510Z,2.03
2023-05-01T12:50:06.535Z,2.01
2023-05-01T12:51:06.566Z,1.99
2023-05-01T12:52:06.590Z,1.94
2023-05-01T12:53:06.628Z,1.95
2023-05-01T12:54:06.667Z,1.98
2023-05-01T12:55:06.688Z,2.01
2023-05-01T12:56:06.713Z,2.04
2023-05-01T12:57:06.767Z,2.07
2023-05-01T12:58:06.782Z,2.11
2023-05-01T12:59:06.836Z,2.06
2023-05-01T13:00:06.878Z,2.10
2023-05-01T13:01:06.876Z,2.07
2023-05-01T13:02:06.962Z,2.09
2023-05-01T13:03:07.064Z,2.10
2023-05-01T13:04:07.007Z,2.12
2023-05-01T13:05:06.997Z,2.11
2023-05-01T13:06:07.070Z,2.15
2023-05-01T13:07:07.065Z,2.18
2023-05-01T13:08:07.096Z,2.08
2023-05-01T13:09:07.120Z,1.91
2023-05-01T13:10:07.172Z,1.78
2023-05-01T13:11:07.183Z,1.76
2023-05-01T13:12:07.208Z,1.77
2023-05-01T13:13:07.235Z,1.88
2023-05-01T13:14:07.262Z,1.81
2023-05-01T13:15:07.319Z,1.69
2023-05-01T13:16:07.337Z,1.71
2023-05-01T13:17:09.123Z,1.66
2023-05-01T13:18:07.399Z,1.67
2023-05-01T13:19:07.299Z,1.64
2023-05-01T13:20:07.333Z,1.57